Time;durP1;ratioP1;P1;durP2;ratioP2;P2;SDS_P1;SDS_P2;PMS_P1;PMS_P2;Temp;Humidity;BMP_temperature;BMP_pressure;BME280_temperature;BME280_humidity;BME280_pressure;Samples;Min_cycle;Max_cycle;Signal;HPM_P1;HPM_P2
2023/06/15 00:00:42;;;;;;;2.60;0.85;;;22.10;47.60;;;;;;5060500;28;20086;-60
2023/06/15 00:03:08;;;;;;;0.68;0.60;;;22.10;47.70;;;;;;5047041;28;20024;-64
2023/06/15 00:05:33;;;;;;;0.75;0.75;;;22.00;47.70;;;;;;5064964;28;20051;-64
2023/06/15 00:07:59;;;;;;;0.88;0.88;;;22.00;47.90;;;;;;5057183;28;20881;-64
2023/06/15 00:10:24;;;;;;;0.80;0.80;;;22.00;48.10;;;;;;5049060;28;20078;-64
2023/06/15 00:12:50;;;;;;;0.98;0.93;;;21.90;48.30;;;;;;5064353;28;20518;-63
2023/06/15 00:15:17;;;;;;;0.93;0.90;;;21.90;48.40;;;;;;5044527;28;20103;-63
2023/06/15 00:17:43;;;;;;;1.70;1.00;;;21.90;48.60;;;;;;5067155;28;20036;-60
2023/06/15 00:20:12;;;;;;;1.08;0.70;;;21.90;48.90;;;;;;5061315;28;20059;-59
2023/06/15 00:22:41;;;;;;;1.17;0.80;;;21.70;49.10;;;;;;5069610;28;20033;-60
2023/06/15 00:25:07;;;;;;;1.13;0.88;;;21.70;49.30;;;;;;5067618;28;20048;-60
2023/06/15 00:27:34;;;;;;;0.98;0.90;;;21.70;49.60;;;;;;5067806;28;20028;-60
2023/06/15 00:30:01;;;;;;;1.08;0.80;;;21.60;49.80;;;;;;5040682;28;20377;-60
2023/06/15 00:32:26;;;;;;;0.95;0.85;;;21.60;50.00;;;;;;5046468;28;20082;-60
2023/06/15 00:34:52;;;;;;;1.67;1.08;;;21.60;50.30;;;;;;5067028;28;20028;-62
2023/06/15 00:37:18;;;;;;;0.63;0.63;;;21.60;50.40;;;;;;5048622;28;20041;-63
2023/06/15 00:39:43;;;;;;;0.55;0.55;;;21.60;51.00;;;;;;5065646;28;20029;-63
2023/06/15 00:42:09;;;;;;;1.63;0.93;;;21.60;51.00;;;;;;5064309;28;20476;-64
2023/06/15 00:44:35;;;;;;;1.05;0.98;;;21.60;51.20;;;;;;5061018;28;20033;-64
2023/06/15 00:47:02;;;;;;;1.92;0.80;;;21.60;51.50;;;;;;5050686;28;20016;-64
2023/06/15 00:49:28;;;;;;;0.73;0.73;;;21.50;51.60;;;;;;5056125;28;20059;-64
2023/06/15 00:51:54;;;;;;;1.08;1.05;;;21.50;51.80;;;;;;5067171;28;20025;-64
2023/06/15 00:54:23;;;;;;;0.80;0.80;;;21.50;52.00;;;;;;5062225;28;20041;-63
2023/06/15 00:56:52;;;;;;;2.97;0.95;;;21.50;52.20;;;;;;5049394;28;20028;-59
2023/06/15 00:59:19;;;;;;;1.10;0.90;;;21.50;52.30;;;;;;5060590;28;20105;-60
2023/06/15 01:01:47;;;;;;;1.35;1.05;;;21.50;52.50;;;;;;5066682;28;20300;-60
2023/06/15 01:04:13;;;;;;;0.60;0.60;;;21.50;52.70;;;;;;5064164;28;20032;-60
2023/06/15 01:06:42;;;;;;;1.08;0.70;;;21.50;52.60;;;;;;5065944;28;20049;-60
2023/06/15 01:09:10;;;;;;;1.02;0.88;;;21.50;52.60;;;;;;5033012;28;20025;-59
2023/06/15 01:11:37;;;;;;;1.70;0.68;;;21.50;52.80;;;;;;5066170;28;20369;-59
2023/06/15 01:14:04;;;;;;;0.73;0.63;;;21.50;53.10;;;;;;5059756;28;20033;-64
2023/06/15 01:16:38;;;;;;;0.80;0.77;;;21.50;53.20;;;;;;5041959;28;20437;-64
2023/06/15 01:19:09;;;;;;;0.55;0.55;;;21.40;53.40;;;;;;5057645;28;20169;-59
2023/06/15 01:21:36;;;;;;;1.30;0.83;;;21.40;53.50;;;;;;5066401;28;20056;-63
2023/06/15 01:24:32;;;;;;;0.95;0.85;;;21.30;53.70;;;;;;5037444;28;20061;-64
2023/06/15 01:26:59;;;;;;;1.33;0.93;;;21.30;53.90;;;;;;5044608;28;20031;-64
2023/06/15 01:29:26;;;;;;;1.52;1.08;;;21.30;54.10;;;;;;5067170;28;20029;-64
2023/06/15 01:31:52;;;;;;;1.45;1.23;;;21.20;54.20;;;;;;5048930;28;20041;-64
2023/06/15 01:34:18;;;;;;;0.80;0.80;;;21.20;54.30;;;;;;5042351;28;20044;-64
2023/06/15 01:36:44;;;;;;;0.85;0.82;;;21.20;54.50;;;;;;5067015;28;20039;-59
2023/06/15 01:39:10;;;;;;;1.08;1.00;;;21.20;54.60;;;;;;5067976;28;20116;-59
2023/06/15 01:41:37;;;;;;;2.63;0.70;;;21.20;54.70;;;;;;5065073;28;20021;-64
2023/06/15 01:44:03;;;;;;;2.20;0.85;;;21.10;54.70;;;;;;5045480;28;20046;-60
2023/06/15 01:46:30;;;;;;;1.52;0.85;;;21.10;54.80;;;;;;5069011;28;20116;-60
2023/06/15 01:48:56;;;;;;;1.13;1.02;;;21.10;55.00;;;;;;5069988;28;20462;-60
2023/06/15 01:51:23;;;;;;;1.92;0.80;;;21.10;55.10;;;;;;5063119;28;20033;-64
2023/06/15 01:53:50;;;;;;;1.10;0.93;;;21.10;55.10;;;;;;5067393;28;20093;-64
2023/06/15 01:56:17;;;;;;;2.13;1.00;;;21.00;55.30;;;;;;5071522;28;20067;-64
2023/06/15 01:58:43;;;;;;;1.23;1.08;;;21.00;55.50;;;;;;5070122;28;20400;-63
2023/06/15 02:01:09;;;;;;;1.02;0.93;;;21.00;55.60;;;;;;5068755;28;20354;-59
2023/06/15 02:03:35;;;;;;;1.70;0.73;;;20.90;55.60;;;;;;5071024;28;20044;-60
2023/06/15 02:06:01;;;;;;;0.70;0.70;;;20.90;55.80;;;;;;5044358;28;20087;-64
2023/06/15 02:08:26;;;;;;;1.25;1.00;;;20.90;55.80;;;;;;5064671;28;20056;-59
2023/06/15 02:10:52;;;;;;;1.58;1.08;;;20.80;56.00;;;;;;5069180;28;20031;-60
2023/06/15 02:13:17;;;;;;;1.13;0.80;;;20.80;56.10;;;;;;5066767;28;20058;-59
2023/06/15 02:15:43;;;;;;;0.52;0.47;;;20.80;56.30;;;;;;5063358;28;20029;-63
2023/06/15 02:18:14;;;;;;;0.93;0.93;;;20.70;56.40;;;;;;5069078;28;20113;-59
2023/06/15 02:20:41;;;;;;;0.80;0.70;;;20.70;56.60;;;;;;5068578;28;20031;-63
2023/06/15 02:23:06;;;;;;;0.88;0.88;;;20.70;56.90;;;;;;5070006;28;20471;-63
2023/06/15 02:25:32;;;;;;;1.27;0.75;;;20.60;57.10;;;;;;5069926;28;20028;-63
2023/06/15 02:27:58;;;;;;;0.60;0.60;;;20.60;57.10;;;;;;5070800;28;20029;-63
2023/06/15 02:30:25;;;;;;;1.75;0.90;;;20.60;57.20;;;;;;5051277;28;20107;-63
2023/06/15 02:32:52;;;;;;;1.15;0.90;;;20.60;57.30;;;;;;5054168;28;20029;-63
2023/06/15 02:35:19;;;;;;;2.20;1.35;;;20.50;57.50;;;;;;5064011;28;20025;-63
2023/06/15 02:37:45;;;;;;;1.08;0.88;;;20.50;57.70;;;;;;5069271;28;20405;-63
2023/06/15 02:40:11;;;;;;;0.88;0.60;;;20.50;57.80;;;;;;5065195;28;20033;-63
2023/06/15 02:42:37;;;;;;;2.20;0.93;;;20.40;57.90;;;;;;5058363;28;20037;-64
2023/06/15 02:45:06;;;;;;;1.10;0.77;;;20.40;57.90;;;;;;5062456;28;20078;-63
2023/06/15 02:47:36;;;;;;;1.20;0.90;;;20.40;57.90;;;;;;5050090;28;20029;-63
2023/06/15 02:50:02;;;;;;;2.40;0.80;;;20.40;57.90;;;;;;5068195;28;20037;-63
2023/06/15 02:52:32;;;;;;;2.13;1.30;;;20.30;58.00;;;;;;5040248;28;20032;-63
2023/06/15 02:55:01;;;;;;;2.38;1.00;;;20.30;58.20;;;;;;5040258;28;20040;-63
2023/06/15 02:57:26;;;;;;;4.47;0.80;;;20.30;58.30;;;;;;5058824;28;20547;-63
2023/06/15 02:59:53;;;;;;;1.33;0.90;;;20.20;58.40;;;;;;5063289;28;20107;-63
2023/06/15 03:02:20;;;;;;;2.05;1.00;;;20.20;58.40;;;;;;5060004;28;20048;-59
2023/06/15 03:04:48;;;;;;;1.02;0.85;;;20.20;58.50;;;;;;5041540;28;20053;-59
2023/06/15 03:07:20;;;;;;;1.02;0.73;;;20.20;58.50;;;;;;5067768;28;20028;-59
2023/06/15 03:09:50;;;;;;;1.35;1.08;;;20.10;58.60;;;;;;5066813;28;20433;-63
2023/06/15 03:12:17;;;;;;;2.30;1.20;;;20.10;58.60;;;;;;5056219;28;20436;-63
2023/06/15 03:14:44;;;;;;;0.70;0.70;;;20.10;58.70;;;;;;5067550;28;20514;-63
2023/06/15 03:17:12;;;;;;;1.48;1.33;;;20.10;58.70;;;;;;5059621;28;20073;-59
2023/06/15 03:19:41;;;;;;;1.15;0.98;;;20.10;58.70;;;;;;5059732;28;20033;-59
2023/06/15 03:22:10;;;;;;;1.73;1.00;;;20.00;58.80;;;;;;5062993;28;20033;-63
2023/06/15 03:24:36;;;;;;;0.68;0.65;;;20.00;59.00;;;;;;5063488;28;20032;-59
2023/06/15 03:27:03;;;;;;;1.48;0.82;;;19.90;58.80;;;;;;5043553;28;20021;-59
2023/06/15 03:29:31;;;;;;;1.65;0.70;;;20.00;58.90;;;;;;5064856;28;20161;-59
2023/06/15 03:31:57;;;;;;;1.15;0.80;;;20.00;59.00;;;;;;5065979;28;20052;-59
2023/06/15 03:34:25;;;;;;;1.25;0.70;;;19.90;59.00;;;;;;5062941;28;20036;-59
2023/06/15 03:36:52;;;;;;;0.95;0.60;;;19.90;59.00;;;;;;5057679;28;20044;-63
2023/06/15 03:39:20;;;;;;;1.17;0.70;;;19.90;59.10;;;;;;5065837;28;20479;-59
2023/06/15 03:41:46;;;;;;;4.38;1.08;;;19.80;59.10;;;;;;5042700;28;20032;-63
2023/06/15 03:44:12;;;;;;;1.80;0.90;;;19.80;59.30;;;;;;5061974;28;20021;-63
2023/06/15 03:46:37;;;;;;;2.72;0.85;;;19.80;59.40;;;;;;5066415;28;20055;-63
2023/06/15 03:49:03;;;;;;;1.90;1.30;;;19.70;59.40;;;;;;5058002;28;20024;-63
2023/06/15 03:51:29;;;;;;;1.48;0.88;;;19.70;59.50;;;;;;5051384;28;20146;-63
2023/06/15 03:53:55;;;;;;;1.48;0.90;;;19.70;59.50;;;;;;5064787;28;20032;-63
2023/06/15 03:56:20;;;;;;;1.80;1.00;;;19.70;59.70;;;;;;5058980;28;20027;-63
2023/06/15 03:58:46;;;;;;;0.98;0.70;;;19.70;59.70;;;;;;5062871;28;20055;-64
2023/06/15 04:01:13;;;;;;;1.42;1.20;;;19.70;59.70;;;;;;5062163;28;20090;-59
2023/06/15 04:03:39;;;;;;;0.77;0.77;;;19.70;59.80;;;;;;5066736;28;20032;-59
2023/06/15 04:06:05;;;;;;;1.27;0.98;;;19.80;59.90;;;;;;5066142;28;20453;-59
2023/06/15 04:08:35;;;;;;;1.05;0.95;;;19.80;59.90;;;;;;5065548;28;20024;-59
2023/06/15 04:11:01;;;;;;;0.70;0.70;;;19.80;59.90;;;;;;5042928;28;20052;-63
2023/06/15 04:13:27;;;;;;;2.03;0.82;;;19.80;60.00;;;;;;5063820;28;20107;-63
2023/06/15 04:15:53;;;;;;;0.77;0.55;;;19.80;60.10;;;;;;5059931;28;20104;-63
2023/06/15 04:18:22;;;;;;;1.20;0.90;;;19.80;60.10;;;;;;5060610;28;20040;-59
2023/06/15 04:20:48;;;;;;;2.53;1.08;;;19.80;60.20;;;;;;5061042;28;20527;-63
2023/06/15 04:23:14;;;;;;;1.92;0.95;;;19.90;60.30;;;;;;5058571;28;20423;-59
2023/06/15 04:25:43;;;;;;;1.17;1.08;;;19.90;60.40;;;;;;5055677;28;20048;-63
2023/06/15 04:28:12;;;;;;;0.50;0.50;;;19.90;60.50;;;;;;5054051;28;20097;-63
2023/06/15 04:30:44;;;;;;;1.08;0.80;;;19.90;60.40;;;;;;5060534;28;20036;-63
2023/06/15 04:33:13;;;;;;;1.25;0.90;;;20.00;60.60;;;;;;5061267;28;20032;-63
2023/06/15 04:35:46;;;;;;;0.73;0.63;;;20.00;60.80;;;;;;5067206;28;20020;-59
2023/06/15 04:38:13;;;;;;;1.00;0.90;;;20.00;60.80;;;;;;5066093;28;20040;-59
2023/06/15 04:40:41;;;;;;;1.35;0.77;;;20.10;60.80;;;;;;5040347;28;20388;-59
2023/06/15 04:43:08;;;;;;;1.75;0.93;;;20.10;60.90;;;;;;5064257;28;20031;-59
2023/06/15 04:45:34;;;;;;;1.83;0.90;;;20.20;60.90;;;;;;5066612;28;20031;-59
2023/06/15 04:48:00;;;;;;;1.52;0.93;;;20.20;60.90;;;;;;5045153;28;20367;-63
2023/06/15 04:50:26;;;;;;;1.08;0.80;;;20.20;60.90;;;;;;5066989;28;20036;-63
2023/06/15 04:52:51;;;;;;;0.95;0.85;;;20.20;60.70;;;;;;5059268;28;20037;-59
2023/06/15 04:55:17;;;;;;;1.05;0.80;;;20.30;60.60;;;;;;5050606;28;20437;-64
2023/06/15 04:57:44;;;;;;;1.05;0.80;;;20.40;60.70;;;;;;5056395;28;20496;-59
2023/06/15 05:00:11;;;;;;;1.42;1.10;;;20.40;60.60;;;;;;5060461;28;20029;-63
2023/06/15 05:02:36;;;;;;;1.30;1.20;;;20.50;60.30;;;;;;5064635;28;20041;-63
2023/06/15 05:05:02;;;;;;;0.93;0.80;;;20.50;60.30;;;;;;5062658;28;20036;-63
2023/06/15 05:07:28;;;;;;;1.38;0.90;;;20.60;60.20;;;;;;5058755;28;20036;-60
2023/06/15 05:09:55;;;;;;;2.65;1.40;;;20.60;60.60;;;;;;5063669;28;20107;-59
2023/06/15 05:12:21;;;;;;;1.35;1.10;;;20.70;60.00;;;;;;5061263;28;20067;-59
2023/06/15 05:14:46;;;;;;;1.08;0.98;;;20.70;59.80;;;;;;5057435;28;20033;-63
2023/06/15 05:17:12;;;;;;;1.10;0.90;;;20.80;59.90;;;;;;5042575;28;20066;-59
2023/06/15 05:19:38;;;;;;;1.58;1.00;;;20.80;59.60;;;;;;5062733;28;20550;-59
2023/06/15 05:22:05;;;;;;;2.33;1.25;;;20.80;59.30;;;;;;5063079;28;20075;-63
2023/06/15 05:24:30;;;;;;;1.73;1.55;;;20.90;59.30;;;;;;5069108;28;20071;-63
2023/06/15 05:26:56;;;;;;;0.70;0.70;;;20.90;59.10;;;;;;5069281;28;20441;-64
2023/06/15 05:29:22;;;;;;;1.40;0.95;;;21.00;58.90;;;;;;5065704;28;20060;-63
2023/06/15 05:31:48;;;;;;;0.77;0.68;;;21.10;58.70;;;;;;5068602;28;20024;-61
2023/06/15 05:34:14;;;;;;;2.28;0.88;;;21.10;58.50;;;;;;5061104;28;20361;-63
2023/06/15 05:36:40;;;;;;;1.13;0.80;;;21.20;58.40;;;;;;5065015;28;20082;-63
2023/06/15 05:39:06;;;;;;;2.65;1.40;;;21.20;58.20;;;;;;5069515;28;20467;-59
2023/06/15 05:41:32;;;;;;;3.67;1.08;;;21.30;58.10;;;;;;5069083;28;20036;-59
2023/06/15 05:44:01;;;;;;;1.38;1.00;;;21.30;57.80;;;;;;5064113;28;20033;-63
2023/06/15 05:46:27;;;;;;;0.88;0.88;;;21.40;57.80;;;;;;5071276;28;20028;-63
2023/06/15 05:48:52;;;;;;;1.20;1.00;;;21.40;57.70;;;;;;5064237;28;20037;-63
2023/06/15 05:51:18;;;;;;;1.05;0.95;;;21.50;57.50;;;;;;5069837;28;20033;-60
2023/06/15 05:53:44;;;;;;;1.08;0.70;;;21.60;57.40;;;;;;5066581;28;20041;-64
2023/06/15 05:56:10;;;;;;;1.63;0.90;;;21.60;57.10;;;;;;5070003;28;20024;-59
2023/06/15 05:58:36;;;;;;;0.85;0.80;;;21.60;56.90;;;;;;5050527;28;20511;-60
2023/06/15 06:01:03;;;;;;;1.25;1.02;;;21.70;56.90;;;;;;5069210;28;20032;-59
2023/06/15 06:03:28;;;;;;;1.95;1.05;;;21.80;56.70;;;;;;5050114;28;20028;-59
2023/06/15 06:05:54;;;;;;;1.15;0.80;;;21.80;56.60;;;;;;5070828;28;20056;-59
2023/06/15 06:08:21;;;;;;;1.52;1.02;;;21.90;56.50;;;;;;5069924;28;20511;-59
2023/06/15 06:10:47;;;;;;;1.30;1.00;;;22.00;56.50;;;;;;5048464;28;20040;-59
2023/06/15 06:13:13;;;;;;;1.23;0.82;;;22.00;56.20;;;;;;5069613;28;20044;-59
2023/06/15 06:15:38;;;;;;;1.58;1.05;;;22.10;55.90;;;;;;5067852;28;20028;-63
2023/06/15 06:18:04;;;;;;;4.35;1.27;;;22.20;55.70;;;;;;5066244;28;20513;-63
2023/06/15 06:20:31;;;;;;;1.25;0.95;;;22.30;55.50;;;;;;5065572;28;20300;-63
2023/06/15 06:22:57;;;;;;;2.15;0.82;;;22.30;55.30;;;;;;5070048;28;20458;-63
2023/06/15 06:25:23;;;;;;;3.13;0.88;;;22.40;55.20;;;;;;5066352;28;20033;-63
2023/06/15 06:27:49;;;;;;;1.08;0.73;;;22.40;55.00;;;;;;5069623;28;20021;-63
2023/06/15 06:30:14;;;;;;;1.10;0.80;;;22.50;54.90;;;;;;5070109;28;20025;-63
2023/06/15 06:32:40;;;;;;;5.38;1.10;;;22.50;54.80;;;;;;5069372;28;20029;-59
2023/06/15 06:35:06;;;;;;;2.33;1.30;;;22.60;54.70;;;;;;5049638;28;20035;-59
2023/06/15 06:37:32;;;;;;;1.08;0.98;;;22.70;54.60;;;;;;5060657;28;20710;-58
2023/06/15 06:39:58;;;;;;;3.25;0.82;;;22.80;54.40;;;;;;5042445;28;20064;-63
2023/06/15 06:42:24;;;;;;;1.58;1.00;;;22.80;54.20;;;;;;5066311;28;20037;-59
2023/06/15 06:44:49;;;;;;;0.93;0.80;;;22.90;54.20;;;;;;5065476;28;20028;-59
2023/06/15 06:47:15;;;;;;;0.80;0.80;;;23.00;54.10;;;;;;5047343;28;20033;-62
2023/06/15 06:49:41;;;;;;;0.80;0.70;;;23.00;54.00;;;;;;5062636;28;20055;-63
2023/06/15 06:52:07;;;;;;;1.13;0.98;;;23.10;54.00;;;;;;5064548;28;20040;-63
2023/06/15 06:54:32;;;;;;;1.10;1.00;;;23.10;53.80;;;;;;5069471;28;20093;-63
2023/06/15 06:57:00;;;;;;;0.93;0.80;;;23.20;53.70;;;;;;5068510;28;20036;-63
2023/06/15 06:59:26;;;;;;;0.65;0.65;;;23.30;53.60;;;;;;5063910;28;20032;-63
2023/06/15 07:01:52;;;;;;;1.92;1.17;;;23.30;53.50;;;;;;5067678;28;20037;-62
2023/06/15 07:04:17;;;;;;;1.90;1.33;;;23.40;53.40;;;;;;5065757;28;20029;-62
2023/06/15 07:06:43;;;;;;;1.27;1.10;;;23.60;53.10;;;;;;5045496;28;20060;-62
2023/06/15 07:09:09;;;;;;;0.90;0.90;;;23.70;52.60;;;;;;5028560;28;20051;-63
2023/06/15 07:11:35;;;;;;;1.52;1.13;;;23.80;52.40;;;;;;5062664;28;20369;-62
2023/06/15 07:14:03;;;;;;;2.15;0.90;;;23.90;52.30;;;;;;5047361;28;20036;-60
2023/06/15 07:16:30;;;;;;;0.90;0.80;;;24.00;52.00;;;;;;5063501;28;20056;-60
2023/06/15 07:18:56;;;;;;;1.70;0.93;;;24.10;51.70;;;;;;5060013;28;20037;-60
2023/06/15 07:21:22;;;;;;;0.80;0.80;;;24.20;51.50;;;;;;5061659;28;20029;-60
2023/06/15 07:23:47;;;;;;;1.10;1.00;;;24.30;51.20;;;;;;5062848;28;20090;-60
2023/06/15 07:26:13;;;;;;;1.25;1.00;;;24.40;51.10;;;;;;5012222;28;20033;-60
2023/06/15 07:28:39;;;;;;;0.88;0.88;;;24.40;51.00;;;;;;5047682;28;20036;-62
2023/06/15 07:31:04;;;;;;;1.35;0.98;;;24.40;51.00;;;;;;5066283;28;20017;-62
2023/06/15 07:33:30;;;;;;;2.75;1.08;;;24.50;50.90;;;;;;5046387;28;20042;-60
2023/06/15 07:35:56;;;;;;;3.72;1.15;;;24.60;50.60;;;;;;5045774;28;20025;-60
2023/06/15 07:38:22;;;;;;;1.25;1.00;;;24.60;50.20;;;;;;5065709;28;20033;-60
2023/06/15 07:40:47;;;;;;;0.82;0.82;;;24.60;50.40;;;;;;5063496;28;20033;-60
2023/06/15 07:43:13;;;;;;;1.48;1.20;;;24.60;50.40;;;;;;5060050;28;20093;-60
2023/06/15 07:45:39;;;;;;;1.00;0.90;;;24.70;50.30;;;;;;5059175;28;20048;-62
2023/06/15 07:48:05;;;;;;;1.92;1.15;;;24.80;50.10;;;;;;5065560;28;20028;-62
2023/06/15 07:50:30;;;;;;;1.38;1.13;;;24.90;49.70;;;;;;5063864;28;20032;-62
2023/06/15 07:52:56;;;;;;;2.50;1.27;;;25.00;49.30;;;;;;5061444;28;20028;-62
2023/06/15 07:55:22;;;;;;;1.48;1.13;;;25.00;48.90;;;;;;5063984;28;20032;-63
2023/06/15 07:57:47;;;;;;;1.23;0.95;;;25.00;48.50;;;;;;5060232;28;20036;-62
2023/06/15 08:00:14;;;;;;;1.48;1.13;;;25.00;48.70;;;;;;5061066;28;20028;-62
2023/06/15 08:02:39;;;;;;;1.42;1.17;;;25.10;48.90;;;;;;5062207;28;20128;-60
2023/06/15 08:05:05;;;;;;;1.17;1.05;;;25.20;48.80;;;;;;5058378;28;20574;-62
2023/06/15 08:07:31;;;;;;;1.45;1.00;;;25.30;49.40;;;;;;5059246;28;20378;-60
2023/06/15 08:09:57;;;;;;;0.85;0.80;;;25.40;48.50;;;;;;5054977;28;20044;-60
2023/06/15 08:12:23;;;;;;;0.80;0.80;;;25.50;48.30;;;;;;5055004;28;20028;-63
2023/06/15 08:14:48;;;;;;;0.80;0.70;;;25.60;48.00;;;;;;5066623;28;20036;-62
2023/06/15 08:17:14;;;;;;;1.55;1.08;;;25.70;47.50;;;;;;5056310;28;20490;-62
2023/06/15 08:19:40;;;;;;;1.35;1.13;;;25.80;47.00;;;;;;5062410;28;20040;-62
2023/06/15 08:22:05;;;;;;;0.80;0.65;;;25.90;46.70;;;;;;5059385;28;20029;-62
2023/06/15 08:24:31;;;;;;;9.95;1.35;;;26.00;46.20;;;;;;5061571;28;20021;-62
2023/06/15 08:26:58;;;;;;;2.00;1.30;;;26.10;45.60;;;;;;5063822;28;20510;-60
2023/06/15 08:29:24;;;;;;;1.48;1.02;;;26.10;45.20;;;;;;5042439;28;20033;-60
2023/06/15 08:31:50;;;;;;;1.23;0.90;;;26.20;45.10;;;;;;5063577;28;20085;-62
2023/06/15 08:34:15;;;;;;;1.17;1.02;;;26.20;45.20;;;;;;5057428;28;20037;-62
2023/06/15 08:36:41;;;;;;;1.75;0.90;;;26.30;44.90;;;;;;5036065;28;20628;-63
2023/06/15 08:39:10;;;;;;;1.23;0.80;;;26.30;44.60;;;;;;5054713;28;20465;-62
2023/06/15 08:41:37;;;;;;;1.52;1.02;;;26.40;44.70;;;;;;5037302;28;20090;-60
2023/06/15 08:44:05;;;;;;;1.00;0.95;;;26.50;44.50;;;;;;5055746;28;20021;-62
2023/06/15 08:46:31;;;;;;;1.48;1.15;;;26.50;44.60;;;;;;5059695;28;20052;-63
2023/06/15 08:48:58;;;;;;;2.15;1.02;;;26.60;44.80;;;;;;5054580;28;20032;-64
2023/06/15 08:51:25;;;;;;;1.00;1.00;;;26.70;44.40;;;;;;5036963;28;20391;-63
2023/06/15 08:53:56;;;;;;;1.20;1.10;;;26.70;44.10;;;;;;5039849;28;20575;-63
2023/06/15 08:56:22;;;;;;;3.30;1.00;;;26.70;43.50;;;;;;5057850;28;20024;-60
2023/06/15 08:58:50;;;;;;;2.40;1.20;;;26.70;43.70;;;;;;5047240;28;20032;-60
2023/06/15 09:01:22;;;;;;;1.05;0.80;;;26.70;43.60;;;;;;5049691;28;20034;-60
2023/06/15 09:03:51;;;;;;;5.30;1.00;;;26.80;43.50;;;;;;5060064;28;20033;-63
2023/06/15 09:06:18;;;;;;;2.05;1.50;;;26.80;43.70;;;;;;5057842;28;20051;-59
2023/06/15 09:08:44;;;;;;;1.23;1.10;;;26.80;43.30;;;;;;5055892;28;20418;-60
2023/06/15 09:11:10;;;;;;;0.70;0.70;;;26.90;43.20;;;;;;5034804;28;20029;-61
2023/06/15 09:13:36;;;;;;;1.90;0.70;;;27.00;43.20;;;;;;5044340;28;20028;-61
2023/06/15 09:16:03;;;;;;;0.85;0.80;;;27.20;43.10;;;;;;5058457;28;20056;-61
2023/06/15 09:18:29;;;;;;;1.70;0.90;;;27.40;43.10;;;;;;5059986;28;20540;-61
2023/06/15 09:21:01;;;;;;;1.45;1.05;;;27.50;42.70;;;;;;5059108;28;20092;-63
2023/06/15 09:23:26;;;;;;;0.93;0.73;;;27.60;42.40;;;;;;5063312;28;20045;-61
2023/06/15 09:25:56;;;;;;;0.95;0.80;;;27.80;42.20;;;;;;5061586;28;20036;-60
2023/06/15 09:28:26;;;;;;;1.98;0.80;;;27.90;42.10;;;;;;5060844;28;20099;-61
2023/06/15 09:30:57;;;;;;;3.22;0.88;;;27.90;41.70;;;;;;5059219;28;20044;-61
2023/06/15 09:33:22;;;;;;;1.08;0.88;;;28.00;41.80;;;;;;5059443;28;20027;-61
2023/06/15 09:36:04;;;;;;;0.55;0.40;;;28.10;41.60;;;;;;5057007;28;20025;-61
2023/06/15 09:38:32;;;;;;;;;;;28.30;41.50;;;;;;5064620;28;20032;-63
2023/06/15 09:41:05;;;;;;;0.80;0.75;;;28.40;41.30;;;;;;5057813;28;20353;-64
2023/06/15 09:43:34;;;;;;;1.60;0.63;;;28.40;40.70;;;;;;5060038;28;20024;-64
2023/06/15 09:46:01;;;;;;;0.90;0.90;;;28.40;40.80;;;;;;5058692;28;20143;-64
2023/06/15 09:48:28;;;;;;;1.40;0.90;;;28.60;40.70;;;;;;5056221;28;20337;-66
2023/06/15 09:51:01;;;;;;;1.00;0.93;;;28.70;40.50;;;;;;5055010;28;20037;-63
2023/06/15 09:53:30;;;;;;;1.50;0.70;;;28.80;40.40;;;;;;5055191;28;20063;-63
2023/06/15 09:55:57;;;;;;;2.22;0.70;;;28.90;40.10;;;;;;5053639;28;20020;-63
2023/06/15 09:58:23;;;;;;;0.90;0.80;;;29.10;39.80;;;;;;5060982;28;20170;-63
2023/06/15 10:00:49;;;;;;;1.30;1.20;;;29.20;39.50;;;;;;5061368;28;20540;-63
2023/06/15 10:03:19;;;;;;;0.80;0.80;;;29.30;39.10;;;;;;5043684;28;20395;-64
2023/06/15 10:05:48;;;;;;;1.55;0.82;;;29.40;38.80;;;;;;5062151;28;20041;-61
2023/06/15 10:08:18;;;;;;;0.80;0.65;;;29.50;38.80;;;;;;5062429;28;20043;-61
2023/06/15 10:10:45;;;;;;;1.02;0.88;;;29.50;38.30;;;;;;5064689;28;20480;-61
2023/06/15 10:13:22;;;;;;;0.70;0.70;;;29.50;38.30;;;;;;5064084;28;20456;-64
2023/06/15 10:15:55;;;;;;;0.60;0.60;;;29.50;38.40;;;;;;5061681;28;20236;-65
2023/06/15 10:18:22;;;;;;;1.08;0.85;;;29.70;38.00;;;;;;5065610;28;20036;-64
2023/06/15 10:20:53;;;;;;;1.90;0.90;;;29.70;38.00;;;;;;5067201;28;20021;-62
2023/06/15 10:23:25;;;;;;;1.52;1.02;;;29.50;38.00;;;;;;5050158;28;20032;-62
2023/06/15 10:25:55;;;;;;;1.23;0.75;;;29.20;38.10;;;;;;5069115;28;20113;-63
2023/06/15 10:28:25;;;;;;;0.57;0.57;;;29.20;38.00;;;;;;5051679;28;20037;-62
2023/06/15 10:31:19;;;;;;;4.53;1.25;;;29.40;37.80;;;;;;5067034;28;20028;-62
2023/06/15 10:34:15;;;;;;;1.17;0.80;;;29.70;37.80;;;;;;5063015;28;20440;-62
2023/06/15 10:37:01;;;;;;;1.15;1.00;;;29.70;37.40;;;;;;5029542;28;20036;-62
2023/06/15 10:39:41;;;;;;;0.95;0.85;;;29.60;37.50;;;;;;5069526;28;20095;-64
2023/06/15 10:42:08;;;;;;;1.77;1.08;;;29.40;37.50;;;;;;5066418;28;20087;-62
2023/06/15 10:44:34;;;;;;;1.08;0.80;;;29.20;37.30;;;;;;5064191;28;20053;-62
2023/06/15 10:47:14;;;;;;;1.90;0.80;;;29.00;38.30;;;;;;5068681;28;20120;-63
2023/06/15 10:49:50;;;;;;;0.90;0.90;;;28.80;38.10;;;;;;5061849;28;20061;-62
2023/06/15 10:52:16;;;;;;;1.00;0.88;;;28.70;38.30;;;;;;5066329;28;20115;-63
2023/06/15 10:54:42;;;;;;;3.25;1.17;;;28.50;38.40;;;;;;5060468;28;20100;-62
2023/06/15 10:57:08;;;;;;;0.85;0.70;;;28.30;38.30;;;;;;5060445;28;20112;-62
2023/06/15 10:59:43;;;;;;;0.70;0.70;;;28.20;38.50;;;;;;5066545;28;20115;-62
2023/06/15 11:02:27;;;;;;;0.60;0.60;;;28.20;38.50;;;;;;5044609;28;20032;-64
2023/06/15 11:05:00;;;;;;;0.50;0.50;;;28.50;38.30;;;;;;5050626;28;20032;-64
2023/06/15 11:07:32;;;;;;;0.60;0.60;;;28.90;38.00;;;;;;5067297;28;20048;-64
2023/06/15 11:10:10;;;;;;;0.77;0.57;;;29.40;37.60;;;;;;5043698;28;20123;-65
2023/06/15 11:12:41;;;;;;;1.35;0.85;;;29.90;37.10;;;;;;5063839;28;20364;-62
2023/06/15 11:15:13;;;;;;;0.70;0.68;;;30.30;36.50;;;;;;5066926;28;20038;-63
2023/06/15 11:17:58;;;;;;;0.77;0.75;;;30.60;36.30;;;;;;5062408;28;20055;-65
2023/06/15 11:20:44;;;;;;;0.77;0.73;;;30.80;35.90;;;;;;5061581;28;20384;-63
2023/06/15 11:23:16;;;;;;;3.60;1.13;;;31.00;35.80;;;;;;5064848;28;20057;-63
2023/06/15 11:25:46;;;;;;;1.30;0.82;;;31.20;35.60;;;;;;5049058;28;20062;-65
2023/06/15 11:28:15;;;;;;;1.10;1.00;;;31.40;35.10;;;;;;5065508;28;20365;-64
2023/06/15 11:30:42;;;;;;;2.25;0.93;;;31.60;34.00;;;;;;5065610;28;20020;-65
2023/06/15 11:33:12;;;;;;;1.00;0.88;;;31.60;34.10;;;;;;5067135;28;20059;-65
2023/06/15 11:35:38;;;;;;;1.23;0.70;;;31.70;33.50;;;;;;5042067;28;20030;-65
2023/06/15 11:38:07;;;;;;;1.20;1.00;;;31.70;33.70;;;;;;5064318;28;20039;-65
2023/06/15 11:40:36;;;;;;;1.20;0.90;;;31.50;33.50;;;;;;5060183;28;20117;-64
2023/06/15 11:43:04;;;;;;;1.85;1.20;;;31.10;33.20;;;;;;5045117;28;20135;-64
2023/06/15 11:45:30;;;;;;;2.15;1.05;;;30.70;33.80;;;;;;5066440;28;20039;-63
2023/06/15 11:47:56;;;;;;;0.73;0.73;;;30.20;34.10;;;;;;5031184;28;20037;-64
2023/06/15 11:50:22;;;;;;;1.45;1.00;;;30.00;34.50;;;;;;5061319;28;20036;-64
2023/06/15 11:52:48;;;;;;;1.45;0.90;;;29.80;35.00;;;;;;5055265;28;20230;-64
2023/06/15 11:55:16;;;;;;;3.15;0.90;;;29.60;35.00;;;;;;5057093;28;20115;-64
2023/06/15 11:57:43;;;;;;;1.67;0.98;;;29.50;35.20;;;;;;5067060;28;20033;-64
2023/06/15 12:00:12;;;;;;;0.68;0.68;;;29.70;35.30;;;;;;5063862;28;20142;-63
2023/06/15 12:02:40;;;;;;;1.88;1.25;;;30.10;35.20;;;;;;5067098;28;20056;-63
2023/06/15 12:05:06;;;;;;;1.10;1.00;;;30.50;34.70;;;;;;5061214;28;20523;-64
2023/06/15 12:07:34;;;;;;;0.70;0.60;;;30.90;34.40;;;;;;5065856;28;20036;-63
2023/06/15 12:10:00;;;;;;;0.90;0.90;;;31.20;34.20;;;;;;5055811;28;20108;-62
2023/06/15 12:12:34;;;;;;;0.80;0.80;;;31.20;33.80;;;;;;5032153;28;20044;-61
2023/06/15 12:15:01;;;;;;;0.88;0.70;;;31.40;33.70;;;;;;5059484;28;20050;-63
2023/06/15 12:17:31;;;;;;;0.80;0.80;;;31.70;33.40;;;;;;5046554;28;20033;-61
2023/06/15 12:20:13;;;;;;;9.40;2.90;;;31.90;32.70;;;;;;5065377;28;20040;-60
2023/06/15 12:22:47;;;;;;;3.40;1.45;;;31.80;32.00;;;;;;5062516;28;20037;-60
2023/06/15 12:25:13;;;;;;;2.42;1.15;;;31.90;32.10;;;;;;5065719;28;20074;-64
2023/06/15 12:27:47;;;;;;;1.73;0.82;;;32.00;31.40;;;;;;5064438;28;20036;-59
2023/06/15 12:30:15;;;;;;;1.20;1.10;;;32.20;30.80;;;;;;5060249;28;20029;-60
2023/06/15 12:32:46;;;;;;;1.42;0.70;;;32.30;31.20;;;;;;5044401;28;20040;-65
2023/06/15 12:35:37;;;;;;;1.42;1.10;;;32.50;31.10;;;;;;5066224;28;20035;-62
2023/06/15 12:38:07;;;;;;;0.68;0.68;;;32.60;31.20;;;;;;5053755;28;20045;-63
2023/06/15 12:40:39;;;;;;;0.90;0.80;;;32.30;31.00;;;;;;5056792;28;20017;-65
2023/06/15 12:43:05;;;;;;;0.80;0.73;;;31.90;31.40;;;;;;5068580;28;20024;-61
2023/06/15 12:45:31;;;;;;;0.65;0.65;;;31.60;31.80;;;;;;5063660;28;20024;-61
2023/06/15 12:47:58;;;;;;;0.88;0.88;;;31.20;32.00;;;;;;5063839;28;20487;-65
2023/06/15 12:50:24;;;;;;;1.77;1.20;;;30.90;32.10;;;;;;5064473;28;20051;-65